Time;durP1;ratioP1;P1;durP2;ratioP2;P2;SDS_P1;SDS_P2;PMS_P1;PMS_P2;Temp;Humidity;BMP_temperature;BMP_pressure;BME280_temperature;BME280_humidity;BME280_pressure;Samples;Min_cycle;Max_cycle;Signal;HPM_P1;HPM_P2
2021/11/02 00:01:30;;;;;;;2.07;1.87;;;8.50;95.60;;;;;;5021740;28;20021;-72
2021/11/02 00:03:56;;;;;;;2.80;2.17;;;8.50;95.60;;;;;;5021586;28;20072;-71
2021/11/02 00:06:22;;;;;;;3.67;2.50;;;8.50;95.70;;;;;;5021468;28;20371;-71
2021/11/02 00:08:49;;;;;;;5.20;2.28;;;8.50;95.70;;;;;;5021862;28;20202;-71
2021/11/02 00:11:15;;;;;;;4.70;2.50;;;8.40;95.80;;;;;;5020879;28;20014;-72
2021/11/02 00:13:45;;;;;;;5.15;2.20;;;8.40;95.60;;;;;;5021691;28;20025;-71
2021/11/02 00:16:14;;;;;;;4.20;2.67;;;8.50;95.50;;;;;;5023397;28;20025;-71
2021/11/02 00:18:45;;;;;;;4.07;2.90;;;8.50;95.40;;;;;;5025482;28;20056;-72
2021/11/02 00:21:12;;;;;;;3.50;2.20;;;8.40;95.50;;;;;;5025491;28;20151;-71
2021/11/02 00:23:38;;;;;;;3.13;2.15;;;8.40;95.60;;;;;;5025144;28;20045;-71
2021/11/02 00:26:05;;;;;;;4.10;2.30;;;8.40;95.60;;;;;;5024128;28;20033;-71
2021/11/02 00:28:32;;;;;;;3.00;2.33;;;8.40;95.60;;;;;;5008021;28;20014;-72
2021/11/02 00:30:57;;;;;;;4.18;2.20;;;8.40;95.50;;;;;;5024137;28;20029;-72
2021/11/02 00:33:23;;;;;;;3.70;2.22;;;8.40;95.20;;;;;;5024796;28;20036;-72
2021/11/02 00:35:49;;;;;;;5.68;2.35;;;8.40;95.30;;;;;;5025188;28;20037;-71
2021/11/02 00:38:15;;;;;;;6.60;2.60;;;8.30;95.50;;;;;;5025013;28;20026;-71
2021/11/02 00:40:43;;;;;;;4.88;1.98;;;8.30;95.50;;;;;;5025056;28;20045;-71
2021/11/02 00:43:10;;;;;;;2.90;1.83;;;8.30;95.40;;;;;;5024680;28;20030;-71
2021/11/02 00:45:36;;;;;;;5.95;3.17;;;8.30;95.40;;;;;;5024967;28;20025;-71
2021/11/02 00:48:08;;;;;;;3.30;1.90;;;8.20;95.80;;;;;;5023554;28;20033;-71
2021/11/02 00:50:36;;;;;;;3.42;2.25;;;8.10;95.40;;;;;;4992540;28;20059;-71
2021/11/02 00:53:05;;;;;;;3.70;2.50;;;8.10;95.50;;;;;;5024554;28;20028;-71
2021/11/02 00:55:31;;;;;;;3.60;2.15;;;8.10;95.50;;;;;;5024741;28;20364;-71
2021/11/02 00:57:58;;;;;;;3.40;2.20;;;8.00;95.50;;;;;;5024627;28;20032;-72
2021/11/02 01:00:24;;;;;;;4.07;2.40;;;8.00;95.70;;;;;;5023510;28;20105;-73
2021/11/02 01:02:51;;;;;;;3.67;2.50;;;8.00;95.60;;;;;;5039658;28;20022;-71
2021/11/02 01:05:16;;;;;;;3.73;2.40;;;7.90;95.70;;;;;;5024618;28;20021;-71
2021/11/02 01:07:43;;;;;;;5.85;2.40;;;7.90;95.80;;;;;;5023998;28;20028;-72
2021/11/02 01:10:15;;;;;;;4.75;2.47;;;7.80;95.80;;;;;;5024640;28;20084;-71
2021/11/02 01:12:45;;;;;;;3.78;2.08;;;7.80;95.90;;;;;;5023496;28;20029;-71
2021/11/02 01:15:13;;;;;;;2.35;1.85;;;7.80;96.00;;;;;;5023128;28;20029;-71
2021/11/02 01:17:39;;;;;;;3.20;2.30;;;7.80;95.60;;;;;;5023095;28;20044;-72
2021/11/02 01:20:06;;;;;;;3.80;2.63;;;7.80;95.60;;;;;;5024306;28;20045;-71
2021/11/02 01:22:33;;;;;;;4.40;2.45;;;7.80;95.70;;;;;;5024266;28;20014;-71
2021/11/02 01:24:59;;;;;;;4.47;2.15;;;7.70;95.80;;;;;;5022856;28;20033;-71
2021/11/02 01:27:24;;;;;;;3.72;2.25;;;7.60;96.00;;;;;;5022950;28;20339;-72
2021/11/02 01:29:50;;;;;;;4.05;2.05;;;7.70;95.80;;;;;;5022986;28;20321;-72
2021/11/02 01:32:16;;;;;;;4.43;2.37;;;7.60;95.80;;;;;;5022787;28;20021;-72
2021/11/02 01:34:42;;;;;;;4.75;2.22;;;7.60;95.90;;;;;;5022632;28;20017;-71
2021/11/02 01:37:08;;;;;;;2.67;2.03;;;7.50;95.90;;;;;;5023921;28;20194;-71
2021/11/02 01:39:34;;;;;;;2.90;1.95;;;7.40;95.90;;;;;;5022816;28;20084;-72
2021/11/02 01:42:01;;;;;;;3.08;2.45;;;7.30;96.00;;;;;;5022840;28;20033;-72
2021/11/02 01:44:29;;;;;;;3.50;2.42;;;7.30;96.00;;;;;;5023803;28;20057;-71
2021/11/02 01:46:54;;;;;;;3.97;2.65;;;7.30;96.00;;;;;;5006222;28;20026;-72
2021/11/02 01:49:20;;;;;;;5.13;2.90;;;7.20;96.00;;;;;;5023857;28;20022;-72
2021/11/02 01:51:46;;;;;;;3.60;2.03;;;7.20;96.10;;;;;;5023829;28;20022;-72
2021/11/02 01:54:12;;;;;;;4.97;2.78;;;7.20;96.10;;;;;;5022389;28;20026;-72
2021/11/02 01:56:38;;;;;;;3.47;2.17;;;7.10;96.10;;;;;;5023504;28;20085;-72
2021/11/02 01:59:04;;;;;;;6.82;2.50;;;7.20;96.00;;;;;;5022402;28;20041;-72
2021/11/02 02:01:51;;;;;;;5.70;2.97;;;7.20;96.00;;;;;;5022573;28;20025;-71
2021/11/02 02:04:57;;;;;;;3.67;2.38;;;7.10;96.20;;;;;;5022367;28;20083;-71
2021/11/02 02:08:03;;;;;;;4.97;2.58;;;7.10;96.10;;;;;;5023406;28;20077;-72
2021/11/02 02:11:02;;;;;;;3.08;1.92;;;7.10;96.10;;;;;;5023445;28;20103;-72
2021/11/02 02:14:01;;;;;;;3.95;2.28;;;7.10;96.10;;;;;;5008087;28;20089;-72
2021/11/02 02:16:41;;;;;;;6.22;2.60;;;7.00;96.00;;;;;;5012888;28;20320;-73
2021/11/02 02:19:18;;;;;;;5.38;2.80;;;6.90;96.00;;;;;;5006333;28;20033;-72
2021/11/02 02:22:04;;;;;;;4.70;2.45;;;6.90;96.00;;;;;;5023228;28;20026;-72
2021/11/02 02:25:11;;;;;;;4.03;2.72;;;6.80;96.10;;;;;;5022939;28;20046;-72
2021/11/02 02:28:22;;;;;;;4.88;2.45;;;6.80;96.00;;;;;;5009721;28;20072;-72
2021/11/02 02:30:58;;;;;;;4.15;2.58;;;6.70;95.90;;;;;;5019154;28;20036;-72
2021/11/02 02:33:29;;;;;;;5.85;2.88;;;6.70;95.90;;;;;;5006018;28;20096;-71
2021/11/02 02:35:56;;;;;;;5.32;2.90;;;6.70;95.90;;;;;;5005976;28;20021;-72
2021/11/02 02:38:23;;;;;;;6.22;2.95;;;6.60;96.10;;;;;;5031656;23;20359;-70
2021/11/02 02:40:50;;;;;;;4.72;3.00;;;6.60;96.00;;;;;;5040636;28;20029;-69
2021/11/02 02:43:16;;;;;;;4.25;2.53;;;6.60;96.10;;;;;;5007915;28;20423;-69
2021/11/02 02:45:41;;;;;;;5.60;2.75;;;6.60;96.10;;;;;;5024406;28;20045;-69
2021/11/02 02:48:07;;;;;;;6.45;3.30;;;6.60;96.00;;;;;;5007972;28;20021;-70
2021/11/02 02:50:33;;;;;;;5.20;2.80;;;6.60;96.10;;;;;;5024262;28;20048;-70
2021/11/02 02:52:59;;;;;;;4.40;3.08;;;6.60;96.10;;;;;;5007552;28;20029;-70
2021/11/02 02:55:25;;;;;;;3.80;2.50;;;6.50;96.20;;;;;;5024239;28;20036;-70
2021/11/02 02:57:53;;;;;;;5.47;3.20;;;6.50;96.20;;;;;;5040498;28;20299;-70
2021/11/02 03:00:19;;;;;;;6.80;3.40;;;6.50;96.30;;;;;;5040444;28;20043;-70
2021/11/02 03:02:45;;;;;;;8.63;3.20;;;6.50;96.20;;;;;;5007893;28;20041;-70
2021/11/02 03:05:13;;;;;;;6.13;3.03;;;6.50;96.40;;;;;;5007478;28;20267;-70
2021/11/02 03:07:39;;;;;;;5.43;2.65;;;6.40;96.20;;;;;;5003815;28;20105;-70
2021/11/02 03:10:06;;;;;;;4.65;3.35;;;6.50;96.30;;;;;;5020785;28;20030;-69
2021/11/02 03:12:34;;;;;;;;;;;6.50;96.20;;;;;;5004791;28;20022;-69
2021/11/02 03:15:32;;;;;;;6.53;4.13;;;6.50;96.10;;;;;;5020315;28;19906;-70
2021/11/02 03:18:53;;;;;;;5.03;2.95;;;6.50;96.30;;;;;;5020895;28;20060;-69
2021/11/02 03:48:45;;;;;;;7.13;3.55;;;6.20;96.10;;;;;;5004806;28;20101;-69
2021/11/02 03:51:29;;;;;;;6.85;3.80;;;6.20;96.00;;;;;;5023063;28;20099;-70
2021/11/02 04:29:49;;;;;;;7.05;3.70;;;6.20;96.00;;;;;;5009887;28;20040;-69
2021/11/02 05:07:39;;;;;;;6.68;3.88;;;6.60;95.50;;;;;;5022430;28;20052;-69
2021/11/02 05:56:48;;;;;;;8.25;5.00;;;6.80;95.60;;;;;;5002521;28;20029;-74
2021/11/02 05:59:53;;;;;;;10.02;5.22;;;6.80;95.70;;;;;;5002251;28;20068;-74
2021/11/02 06:02:24;;;;;;;9.93;5.95;;;6.90;95.50;;;;;;5001095;28;20375;-74
2021/11/02 06:29:17;;;;;;;10.07;5.63;;;6.90;95.50;;;;;;5001061;28;20053;-76
2021/11/02 06:31:53;;;;;;;11.38;5.45;;;7.00;95.50;;;;;;4968730;28;20087;-76
2021/11/02 08:48:10;;;;;;;11.35;6.05;;;8.90;94.40;;;;;;5019539;28;20029;-73
2021/11/02 08:50:41;;;;;;;8.38;5.13;;;9.00;94.30;;;;;;5024103;28;20067;-73
2021/11/02 08:53:12;;;;;;;9.93;5.60;;;9.10;94.40;;;;;;5007448;28;20314;-73
2021/11/02 08:55:38;;;;;;;8.75;5.35;;;9.00;93.90;;;;;;5006437;28;20021;-73
2021/11/02 08:58:04;;;;;;;12.48;5.40;;;9.00;93.80;;;;;;5023483;28;20046;-73
2021/11/02 09:00:30;;;;;;;12.30;5.38;;;9.00;93.80;;;;;;5006023;28;20032;-73
2021/11/02 09:03:18;;;;;;;9.18;4.97;;;9.10;93.80;;;;;;5023602;28;20033;-73
2021/11/02 09:05:45;;;;;;;5.90;3.63;;;9.10;93.60;;;;;;5023965;28;20022;-73
2021/11/02 09:08:11;;;;;;;;;;;9.10;93.00;;;;;;5012897;28;20141;-73
2021/11/02 09:10:41;;;;;;;9.18;4.00;;;9.00;93.90;;;;;;5023626;28;19981;-73
2021/11/02 09:13:09;;;;;;;8.23;4.45;;;9.00;93.80;;;;;;5022208;28;20216;-73
2021/11/02 09:15:36;;;;;;;5.55;3.50;;;8.90;93.30;;;;;;4989622;28;20017;-73
2021/11/02 09:18:04;;;;;;;;;;;8.90;93.70;;;;;;5004607;28;20089;-73
2021/11/02 09:20:30;;;;;;;5.57;2.95;;;8.90;93.50;;;;;;5002218;28;19909;-73
2021/11/02 09:22:55;;;;;;;3.75;2.63;;;8.90;93.30;;;;;;5003301;28;20065;-73
2021/11/02 09:25:21;;;;;;;7.85;2.83;;;9.00;92.40;;;;;;5002285;28;20178;-73
2021/11/02 09:27:48;;;;;;;4.85;2.65;;;9.10;92.80;;;;;;5003883;28;20091;-73
2021/11/02 09:30:15;;;;;;;4.85;2.97;;;9.20;92.40;;;;;;4987201;28;20072;-73
2021/11/02 09:32:46;;;;;;;4.07;2.80;;;9.30;92.20;;;;;;4986536;28;20038;-72
2021/11/02 09:35:13;;;;;;;5.30;2.58;;;9.40;92.10;;;;;;5001975;28;20053;-73
2021/11/02 09:37:49;;;;;;;4.65;2.80;;;9.40;92.20;;;;;;4989481;28;20033;-73
2021/11/02 09:40:30;;;;;;;6.53;3.47;;;9.60;92.80;;;;;;5006551;28;20096;-73
2021/11/02 09:43:18;;;;;;;5.90;3.80;;;9.70;92.20;;;;;;5022862;28;20291;-74
2021/11/02 09:46:02;;;;;;;;;;;9.90;91.60;;;;;;5022421;28;20030;-73
2021/11/02 09:49:02;;;;;;;4.50;3.65;;;10.10;90.80;;;;;;5013844;28;19912;-73
2021/11/02 09:52:33;;;;;;;8.38;2.88;;;10.40;90.90;;;;;;5019742;28;20090;-73
2021/11/02 09:55:49;;;;;;;4.13;2.90;;;10.60;90.80;;;;;;4962332;29;20027;-73
2021/11/02 09:58:55;;;;;;;4.47;3.13;;;10.90;90.30;;;;;;5014536;28;20033;-74
2021/11/02 10:01:24;;;;;;;4.50;2.95;;;11.00;89.30;;;;;;5023297;28;20045;-71
2021/11/02 10:04:14;;;;;;;4.68;2.97;;;11.10;88.40;;;;;;5023304;28;20085;-69
2021/11/02 10:07:15;;;;;;;5.07;2.92;;;11.30;90.10;;;;;;5022205;28;20165;-72
2021/11/02 10:09:56;;;;;;;5.18;2.97;;;11.50;87.30;;;;;;5005087;28;20029;-72
2021/11/02 10:12:44;;;;;;;3.30;2.92;;;11.70;85.90;;;;;;5021219;28;20101;-72
2021/11/02 10:16:04;;;;;;;3.80;2.38;;;11.90;85.30;;;;;;5007364;28;20218;-72
2021/11/02 10:18:40;;;;;;;6.47;2.88;;;12.10;84.00;;;;;;5012975;28;20030;-72
2021/11/02 10:21:52;;;;;;;6.57;2.50;;;12.60;79.90;;;;;;5021030;28;20034;-72
2021/11/02 10:24:52;;;;;;;3.42;2.35;;;12.60;77.60;;;;;;5021106;28;20408;-72
2021/11/02 10:27:36;;;;;;;4.38;2.22;;;12.80;79.80;;;;;;5008203;28;20025;-72
2021/11/02 10:31:20;;;;;;;3.95;2.03;;;14.20;75.60;;;;;;5022183;28;20236;-72
2021/11/02 10:34:12;;;;;;;4.82;2.10;;;14.70;70.90;;;;;;4997696;28;20094;-73
2021/11/02 10:37:24;;;;;;;4.40;2.20;;;14.00;71.30;;;;;;5007550;28;20038;-72
2021/11/02 10:40:04;;;;;;;2.90;1.98;;;13.30;73.80;;;;;;5007590;28;20026;-72
2021/11/02 10:43:09;;;;;;;4.53;2.40;;;12.70;77.10;;;;;;5020836;28;20064;-72
2021/11/02 10:45:36;;;;;;;3.75;1.80;;;13.40;78.80;;;;;;5021754;28;20052;-73
2021/11/02 10:48:05;;;;;;;4.80;1.75;;;15.10;69.90;;;;;;5020260;28;20415;-73
2021/11/02 10:50:44;;;;;;;4.68;1.50;;;16.00;65.30;;;;;;5009595;28;20057;-72
2021/11/02 10:53:10;;;;;;;3.40;1.60;;;15.40;63.80;;;;;;5020524;28;20137;-73
2021/11/02 10:56:10;;;;;;;2.90;1.60;;;14.60;68.60;;;;;;5020265;28;20359;-72
2021/11/02 10:58:44;;;;;;;3.08;1.40;;;14.40;70.90;;;;;;5021172;28;20082;-73
2021/11/02 11:01:11;;;;;;;1.98;1.17;;;15.10;67.10;;;;;;5020372;28;20093;-72
2021/11/02 11:03:39;;;;;;;2.28;1.20;;;16.20;63.20;;;;;;4999573;28;20077;-73
2021/11/02 11:06:08;;;;;;;2.58;1.52;;;16.40;61.20;;;;;;5000966;28;20030;-72
2021/11/02 11:08:36;;;;;;;5.55;1.73;;;15.40;62.90;;;;;;5011052;28;20412;-72
2021/11/02 11:11:04;;;;;;;1.92;1.25;;;15.70;63.60;;;;;;5020331;28;20097;-72
2021/11/02 11:13:31;;;;;;;2.70;1.55;;;15.80;60.50;;;;;;5003956;28;20049;-73
2021/11/02 11:16:02;;;;;;;2.90;0.93;;;15.10;63.90;;;;;;5021558;28;20221;-73
2021/11/02 11:18:40;;;;;;;1.67;0.90;;;14.40;65.10;;;;;;5020431;28;20240;-72
2021/11/02 11:21:06;;;;;;;2.45;0.88;;;14.60;65.10;;;;;;5021430;28;20106;-72
2021/11/02 11:23:31;;;;;;;4.53;1.10;;;14.50;65.20;;;;;;5003038;28;20313;-72
2021/11/02 11:26:00;;;;;;;1.40;1.10;;;14.70;63.60;;;;;;5003737;28;20029;-73
2021/11/02 11:28:26;;;;;;;3.38;1.08;;;14.80;63.40;;;;;;5020020;28;20102;-72
2021/11/02 11:30:53;;;;;;;2.30;1.20;;;14.50;64.90;;;;;;5021277;28;20033;-72
2021/11/02 11:33:19;;;;;;;1.38;0.90;;;14.70;63.10;;;;;;5003510;28;20029;-72
2021/11/02 11:35:45;;;;;;;3.15;1.92;;;14.40;65.20;;;;;;5008588;28;20023;-72
2021/11/02 11:38:13;;;;;;;2.35;1.38;;;13.70;67.60;;;;;;5003850;28;20358;-72
2021/11/02 11:40:42;;;;;;;1.40;0.90;;;13.90;64.70;;;;;;5019499;28;20324;-72
2021/11/02 11:43:10;;;;;;;1.02;0.60;;;13.90;65.70;;;;;;4987675;28;20073;-72
2021/11/02 11:45:40;;;;;;;2.22;0.70;;;13.60;62.80;;;;;;5003967;28;20049;-72
2021/11/02 11:48:24;;;;;;;1.92;0.98;;;13.60;64.00;;;;;;5019840;28;20037;-72
2021/11/02 11:50:51;;;;;;;2.15;0.90;;;13.20;66.60;;;;;;5019912;28;20216;-72
2021/11/02 11:53:20;;;;;;;;;;;13.30;67.60;;;;;;5003927;28;20053;-72
2021/11/02 11:55:50;;;;;;;1.30;0.88;;;13.20;65.60;;;;;;5019561;28;19913;-72
2021/11/02 11:58:24;;;;;;;2.63;0.80;;;13.50;64.00;;;;;;5003647;28;20034;-72
2021/11/02 12:01:13;;;;;;;5.45;0.93;;;13.20;64.40;;;;;;5020701;28;20022;-72
2021/11/02 12:04:13;;;;;;;1.02;0.80;;;13.30;62.80;;;;;;5020714;28;20048;-72
2021/11/02 12:07:19;;;;;;;1.77;0.70;;;13.20;64.70;;;;;;5019848;28;20018;-72
2021/11/02 12:09:46;;;;;;;2.40;1.00;;;13.10;65.60;;;;;;5001263;28;20038;-72
2021/11/02 12:12:13;;;;;;;1.02;0.80;;;12.70;67.40;;;;;;5002825;28;20102;-72
2021/11/02 12:14:55;;;;;;;2.05;0.68;;;12.40;67.60;;;;;;4987834;28;20034;-72
2021/11/02 12:17:21;;;;;;;3.83;1.27;;;12.20;67.30;;;;;;4987802;28;20030;-72
2021/11/02 12:20:05;;;;;;;7.80;1.13;;;12.20;68.40;;;;;;5005126;28;20344;-72
2021/11/02 12:22:35;;;;;;;3.65;1.33;;;12.10;68.70;;;;;;4988838;28;20278;-72
2021/11/02 12:25:20;;;;;;;3.08;1.00;;;12.10;70.40;;;;;;5003303;28;20022;-72
2021/11/02 12:27:46;;;;;;;2.47;0.82;;;12.50;69.20;;;;;;5003865;28;20030;-73
2021/11/02 12:30:14;;;;;;;5.53;1.03;;;13.30;67.00;;;;;;5003718;28;20093;-72
2021/11/02 12:32:48;;;;;;;0.80;0.70;;;14.30;60.40;;;;;;5004913;28;20030;-72
2021/11/02 12:35:42;;;;;;;2.45;0.82;;;14.30;60.60;;;;;;4972581;28;20033;-72
2021/11/02 12:38:08;;;;;;;2.75;0.82;;;13.50;63.90;;;;;;5014140;28;20104;-72
2021/11/02 12:40:45;;;;;;;0.80;0.80;;;13.50;64.30;;;;;;5023028;28;20324;-73
2021/11/02 12:43:25;;;;;;;2.45;0.80;;;13.20;64.80;;;;;;5023032;28;20216;-73
2021/11/02 12:45:52;;;;;;;3.85;0.90;;;13.40;62.90;;;;;;5023200;28;20376;-73
2021/11/02 12:48:18;;;;;;;2.85;0.70;;;13.50;62.70;;;;;;5023070;28;20032;-73
2021/11/02 12:50:48;;;;;;;2.72;0.75;;;14.20;58.40;;;;;;5006880;28;20329;-73
2021/11/02 12:53:14;;;;;;;3.65;0.60;;;14.40;59.30;;;;;;5022933;28;20071;-72
2021/11/02 12:55:40;;;;;;;1.73;0.63;;;15.10;57.40;;;;;;5022630;28;20030;-73
2021/11/02 12:58:12;;;;;;;2.93;0.60;;;15.00;56.30;;;;;;5006337;28;20109;-73
2021/11/02 13:00:53;;;;;;;0.63;0.52;;;14.50;57.40;;;;;;5022646;28;20030;-72
2021/11/02 13:03:24;;;;;;;0.98;0.70;;;14.00;59.90;;;;;;5023841;28;20094;-73
2021/11/02 13:06:06;;;;;;;3.05;0.90;;;13.50;60.50;;;;;;5006872;28;20344;-73
2021/11/02 13:08:46;;;;;;;2.55;0.80;;;13.00;63.20;;;;;;5023869;28;20092;-72
2021/11/02 13:11:18;;;;;;;1.65;0.55;;;12.60;64.60;;;;;;5022647;28;20053;-73
2021/11/02 13:13:59;;;;;;;3.05;1.00;;;12.40;66.70;;;;;;5022475;28;20108;-72
2021/11/02 13:16:27;;;;;;;1.30;0.80;;;12.00;68.20;;;;;;5022701;28;20026;-72
2021/11/02 13:18:52;;;;;;;;;;;11.90;68.50;;;;;;5006712;28;20033;-73
2021/11/02 13:21:25;;;;;;;1.20;0.55;;;11.70;70.00;;;;;;5022345;28;19909;-73
2021/11/02 13:24:24;;;;;;;0.90;0.80;;;11.70;70.70;;;;;;5022924;28;20034;-73
2021/11/02 13:26:52;;;;;;;5.00;1.23;;;11.60;71.90;;;;;;5023442;28;20033;-70
2021/11/02 13:29:25;;;;;;;1.80;1.10;;;11.50;72.50;;;;;;5022235;28;20061;-70
2021/11/02 13:31:53;;;;;;;1.00;0.85;;;11.50;73.20;;;;;;5006153;28;20089;-70
2021/11/02 13:34:40;;;;;;;1.75;0.88;;;11.40;74.00;;;;;;5023005;28;20024;-70
2021/11/02 13:37:11;;;;;;;2.37;1.17;;;11.30;75.00;;;;;;5008202;28;20351;-73
2021/11/02 13:40:10;;;;;;;3.20;1.00;;;11.30;76.00;;;;;;5022312;28;20349;-73
2021/11/02 13:42:49;;;;;;;3.45;1.00;;;11.20;77.00;;;;;;5001099;28;20253;-73
2021/11/02 13:45:22;;;;;;;2.67;0.90;;;11.20;77.30;;;;;;5022206;28;20269;-73
2021/11/02 13:47:48;;;;;;;1.50;0.80;;;11.10;78.40;;;;;;5023042;28;20096;-73
2021/11/02 13:50:15;;;;;;;1.23;0.70;;;10.80;78.20;;;;;;5022030;28;20037;-73
2021/11/02 13:52:41;;;;;;;1.27;0.63;;;10.50;80.10;;;;;;5021861;28;20029;-73
2021/11/02 13:55:08;;;;;;;0.60;0.50;;;10.20;84.20;;;;;;5021590;28;20404;-72
2021/11/02 13:57:34;;;;;;;3.17;0.70;;;9.70;88.90;;;;;;5022941;28;20359;-73
2021/11/02 13:59:59;;;;;;;1.13;0.65;;;9.60;90.60;;;;;;5005389;28;20029;-73
2021/11/02 14:02:25;;;;;;;1.50;0.80;;;9.50;91.20;;;;;;5022825;28;20053;-73
2021/11/02 14:04:51;;;;;;;1.65;0.80;;;9.50;91.50;;;;;;5021485;28;20046;-73
2021/11/02 14:07:24;;;;;;;1.02;0.77;;;9.50;91.80;;;;;;5021689;28;20095;-73
2021/11/02 14:10:05;;;;;;;3.85;0.88;;;9.40;92.00;;;;;;5006038;28;20053;-73
2021/11/02 14:12:52;;;;;;;1.63;1.02;;;9.30;92.50;;;;;;5005764;28;20093;-73
2021/11/02 14:15:31;;;;;;;1.33;0.75;;;9.30;92.50;;;;;;5022143;28;20049;-73
2021/11/02 14:17:56;;;;;;;3.25;0.95;;;9.40;92.20;;;;;;5021560;28;20034;-73
2021/11/02 14:20:51;;;;;;;5.35;1.05;;;9.40;92.50;;;;;;5022545;28;20093;-73
2021/11/02 14:23:29;;;;;;;3.80;0.95;;;9.50;92.10;;;;;;5021438;28;20045;-73
2021/11/02 14:26:26;;;;;;;3.25;1.08;;;9.60;92.30;;;;;;5021218;28;20022;-73
2021/11/02 14:28:55;;;;;;;5.75;1.50;;;9.60;92.20;;;;;;5022388;28;20048;-73
2021/11/02 14:31:40;;;;;;;3.40;1.00;;;9.70;92.40;;;;;;5004731;28;20336;-73
2021/11/02 14:34:10;;;;;;;2.08;1.15;;;9.60;92.10;;;;;;5021320;28;20033;-73
2021/11/02 14:36:44;;;;;;;3.85;1.52;;;9.60;92.10;;;;;;5005004;28;20040;-73
2021/11/02 14:39:12;;;;;;;4.35;1.27;;;9.60;92.20;;;;;;5021804;28;20347;-73
2021/11/02 14:41:47;;;;;;;1.50;0.95;;;9.70;92.00;;;;;;5022171;28;20022;-73
2021/11/02 14:44:28;;;;;;;4.20;1.20;;;9.70;92.40;;;;;;5020557;28;20266;-73
2021/11/02 14:46:58;;;;;;;1.60;1.30;;;9.80;92.10;;;;;;5021838;28;20014;-71
2021/11/02 14:49:30;;;;;;;4.68;1.23;;;9.80;92.10;;;;;;5020400;28;20343;-70
2021/11/02 14:52:02;;;;;;;2.65;1.17;;;9.70;92.00;;;;;;5021558;28;20033;-70
2021/11/02 14:54:31;;;;;;;2.30;1.40;;;9.70;92.40;;;;;;5021004;28;20037;-73
2021/11/02 14:57:18;;;;;;;3.67;1.50;;;9.70;92.70;;;;;;5021599;28;20033;-73
2021/11/02 14:59:55;;;;;;;4.45;1.48;;;9.70;92.50;;;;;;5020732;28;20033;-73
2021/11/02 15:02:37;;;;;;;3.22;1.40;;;9.80;92.50;;;;;;5005323;28;20033;-73
2021/11/02 15:05:06;;;;;;;2.95;1.35;;;9.60;92.50;;;;;;5020451;28;20189;-73
2021/11/02 15:07:34;;;;;;;3.55;1.17;;;9.60;92.30;;;;;;5004245;28;20052;-73
2021/11/02 15:10:05;;;;;;;3.42;1.70;;;9.50;92.10;;;;;;5020232;28;20032;-73
2021/11/02 15:12:30;;;;;;;1.83;1.05;;;9.40;92.00;;;;;;5020681;28;20328;-73
2021/11/02 15:14:56;;;;;;;3.00;1.20;;;9.50;92.20;;;;;;5003814;28;20034;-73
2021/11/02 15:17:22;;;;;;;2.03;1.20;;;9.40;92.30;;;;;;5004864;28;20033;-73
2021/11/02 15:19:48;;;;;;;1.63;1.00;;;9.40;92.50;;;;;;5004455;28;20045;-72
2021/11/02 15:22:17;;;;;;;4.13;1.20;;;9.40;92.50;;;;;;5004218;28;20109;-72
2021/11/02 15:24:52;;;;;;;3.28;1.23;;;9.50;92.20;;;;;;5021017;28;20049;-72
2021/11/02 15:27:21;;;;;;;2.30;1.30;;;9.40;92.30;;;;;;5020513;28;20021;-72
2021/11/02 15:30:08;;;;;;;5.15;1.33;;;9.50;92.10;;;;;;5020511;28;20053;-72
2021/11/02 15:32:44;;;;;;;1.25;0.80;;;9.50;92.10;;;;;;5020481;28;20026;-72
2021/11/02 15:35:16;;;;;;;2.50;0.93;;;9.50;92.10;;;;;;5019992;28;20022;-72
2021/11/02 15:37:54;;;;;;;1.63;0.50;;;9.40;91.60;;;;;;5020368;28;20025;-71
2021/11/02 15:40:26;;;;;;;1.98;1.55;;;9.30;91.70;;;;;;5020042;28;20043;-72
2021/11/02 15:42:56;;;;;;;2.38;0.93;;;9.30;92.00;;;;;;5020596;28;20131;-72
2021/11/02 15:45:29;;;;;;;3.20;0.90;;;9.30;92.30;;;;;;5021398;28;20033;-72
2021/11/02 15:47:54;;;;;;;3.75;1.30;;;9.30;92.50;;;;;;5025187;28;20045;-72
2021/11/02 15:50:22;;;;;;;1.83;0.77;;;9.30;92.30;;;;;;5024093;28;20101;-72
2021/11/02 15:52:48;;;;;;;2.85;1.02;;;9.30;92.30;;;;;;5024006;28;20025;-72
2021/11/02 15:55:21;;;;;;;1.75;1.00;;;9.20;92.20;;;;;;5023694;28;20269;-72
2021/11/02 15:57:53;;;;;;;3.00;0.85;;;9.20;92.20;;;;;;5024125;28;20030;-72
2021/11/02 16:00:29;;;;;;;4.80;1.63;;;9.20;92.50;;;;;;5008449;28;20415;-72
2021/11/02 16:02:55;;;;;;;4.50;1.70;;;9.20;92.80;;;;;;5024307;28;20022;-72
2021/11/02 16:05:29;;;;;;;1.92;1.63;;;9.20;92.90;;;;;;5024116;28;20092;-72
2021/11/02 16:07:59;;;;;;;3.17;1.27;;;9.20;93.00;;;;;;5024927;28;20022;-71
2021/11/02 16:10:30;;;;;;;5.45;1.90;;;9.30;92.80;;;;;;5007885;28;20044;-71
2021/11/02 16:12:57;;;;;;;7.10;1.75;;;9.30;93.00;;;;;;5023769;28;20464;-72
2021/11/02 16:15:31;;;;;;;4.95;2.25;;;9.30;93.10;;;;;;5024064;28;20089;-72
2021/11/02 16:18:06;;;;;;;7.60;2.20;;;9.20;92.70;;;;;;5007965;28;20033;-72
2021/11/02 16:20:40;;;;;;;3.42;1.42;;;9.30;92.80;;;;;;5024297;28;20224;-72
2021/11/02 16:23:15;;;;;;;4.20;1.60;;;9.10;92.90;;;;;;5023923;28;20262;-72
2021/11/02 16:25:57;;;;;;;1.85;1.17;;;9.10;93.20;;;;;;5023904;28;20036;-72
2021/11/02 16:28:30;;;;;;;3.25;1.40;;;9.00;93.30;;;;;;5007341;28;20026;-72
2021/11/02 16:31:04;;;;;;;4.28;1.85;;;8.90;93.60;;;;;;5023671;28;20075;-72
2021/11/02 16:33:39;;;;;;;3.28;1.80;;;8.90;93.70;;;;;;5007062;28;20032;-72
2021/11/02 16:36:33;;;;;;;3.00;2.22;;;9.00;93.40;;;;;;5008040;28;20291;-72
2021/11/02 16:39:12;;;;;;;4.80;1.80;;;8.80;93.60;;;;;;5023299;28;20041;-71
2021/11/02 16:42:04;;;;;;;6.90;2.67;;;8.80;93.90;;;;;;5023692;28;20030;-73
2021/11/02 16:44:39;;;;;;;6.57;2.30;;;8.80;93.90;;;;;;5023082;28;20036;-73
2021/11/02 16:47:13;;;;;;;6.10;2.25;;;8.70;93.90;;;;;;5023218;28;20089;-73
2021/11/02 16:49:40;;;;;;;5.43;1.88;;;8.60;94.10;;;;;;5023842;28;20321;-73
2021/11/02 16:52:09;;;;;;;4.30;2.35;;;8.60;94.20;;;;;;5007129;28;20192;-73
2021/11/02 16:54:44;;;;;;;6.15;2.30;;;8.50;94.20;;;;;;5006605;28;20248;-72
2021/11/02 16:57:18;;;;;;;4.18;2.08;;;8.50;94.30;;;;;;5022460;28;20339;-72
2021/11/02 16:59:48;;;;;;;3.20;1.92;;;8.50;94.40;;;;;;5024361;28;20057;-73
2021/11/02 17:02:32;;;;;;;3.97;1.77;;;8.50;94.30;;;;;;5024137;28;20018;-73
2021/11/02 17:05:05;;;;;;;5.35;2.22;;;8.40;94.60;;;;;;5022835;28;20221;-73
2021/11/02 17:07:45;;;;;;;3.63;1.70;;;8.40;94.70;;;;;;5023796;28;20021;-73
2021/11/02 17:10:23;;;;;;;9.02;2.20;;;8.40;94.80;;;;;;5023813;28;20029;-73
2021/11/02 17:13:14;;;;;;;4.68;2.05;;;8.50;94.80;;;;;;5022813;28;20213;-73
2021/11/02 17:16:01;;;;;;;3.78;2.17;;;8.50;94.80;;;;;;5022863;28;20017;-73
2021/11/02 17:18:56;;;;;;;2.58;2.05;;;8.40;94.90;;;;;;5022673;28;20037;-73
2021/11/02 17:21:29;;;;;;;4.68;2.50;;;8.50;94.90;;;;;;5010129;28;20119;-70
2021/11/02 17:23:56;;;;;;;4.18;2.08;;;8.50;94.70;;;;;;5022639;28;20021;-73
2021/11/02 17:26:23;;;;;;;5.47;1.98;;;8.60;94.80;;;;;;5006209;28;20014;-72
2021/11/02 17:28:50;;;;;;;;;;;8.50;94.70;;;;;;4990551;28;20324;-72
2021/11/02 17:31:19;;;;;;;3.33;1.73;;;8.40;94.80;;;;;;5023729;28;19913;-73
2021/11/02 17:33:45;;;;;;;3.58;1.90;;;8.40;94.80;;;;;;5022475;28;20014;-73
2021/11/02 17:36:16;;;;;;;3.20;1.90;;;8.40;94.90;;;;;;5006387;28;20324;-72
2021/11/02 17:38:44;;;;;;;3.88;2.50;;;8.30;94.80;;;;;;5006770;28;20432;-73
2021/11/02 17:41:10;;;;;;;7.00;2.40;;;8.20;94.90;;;;;;5022238;28;20093;-72
2021/11/02 17:43:41;;;;;;;4.75;2.90;;;8.20;94.90;;;;;;5005990;28;20341;-73
2021/11/02 17:46:08;;;;;;;5.78;2.97;;;8.20;94.90;;;;;;5022480;28;20321;-73
2021/11/02 17:48:35;;;;;;;7.22;3.22;;;8.10;95.00;;;;;;5021691;28;20090;-72
2021/11/02 17:51:01;;;;;;;5.05;3.25;;;8.10;95.10;;;;;;5022426;28;20037;-72
2021/11/02 17:53:27;;;;;;;6.47;3.03;;;8.20;95.00;;;;;;5021962;28;20321;-72
2021/11/02 17:55:57;;;;;;;7.50;3.30;;;8.20;95.00;;;;;;5005852;28;20351;-72
2021/11/02 17:58:26;;;;;;;4.93;3.22;;;8.30;94.70;;;;;;4990527;28;20048;-72
2021/11/02 18:00:56;;;;;;;7.85;3.25;;;8.30;94.70;;;;;;4989952;28;20030;-72
2021/11/02 18:03:23;;;;;;;6.88;3.60;;;8.30;94.80;;;;;;5022227;28;20041;-72
2021/11/02 18:05:53;;;;;;;8.00;3.80;;;8.30;94.90;;;;;;5006166;28;20030;-71
2021/11/02 18:08:19;;;;;;;7.65;4.22;;;8.40;95.10;;;;;;4981463;28;20026;-70
2021/11/02 18:10:45;;;;;;;9.65;4.28;;;8.40;94.60;;;;;;5002134;28;20041;-70
2021/11/02 18:13:11;;;;;;;7.90;4.22;;;8.40;94.80;;;;;;5003288;28;20038;-71
2021/11/02 18:15:37;;;;;;;14.23;6.60;;;8.30;94.80;;;;;;5003271;28;20321;-70
2021/11/02 18:18:07;;;;;;;12.85;6.95;;;8.30;94.80;;;;;;4969942;28;20265;-71
2021/11/02 18:20:33;;;;;;;9.25;5.35;;;8.30;94.80;;;;;;4969658;28;20026;-72
2021/11/02 18:22:59;;;;;;;6.07;4.22;;;8.40;94.60;;;;;;5003061;28;20018;-70
2021/11/02 18:25:25;;;;;;;6.72;4.15;;;8.30;94.50;;;;;;4969292;28;20049;-70
2021/11/02 18:27:53;;;;;;;8.00;3.97;;;8.30;94.70;;;;;;4985941;28;20076;-70
2021/11/02 18:30:23;;;;;;;6.57;4.18;;;8.20;94.80;;;;;;4985651;28;20022;-72
2021/11/02 18:32:49;;;;;;;9.77;5.00;;;8.20;95.00;;;;;;5001983;28;20030;-72
2021/11/02 18:35:15;;;;;;;6.47;4.13;;;8.20;95.30;;;;;;5002653;28;20034;-72